createdAt,value
2019-02-02T00:01:46.784Z,15.70
2019-02-02T00:06:48.129Z,16.20
2019-02-02T00:11:49.390Z,16.40
2019-02-02T00:16:50.677Z,16.40
2019-02-02T00:21:52.201Z,16.70
2019-02-02T00:26:53.552Z,16.50
2019-02-02T00:31:54.804Z,16.50
2019-02-02T00:36:59.003Z,16.70
2019-02-02T00:41:59.454Z,16.50
2019-02-02T00:47:00.717Z,16.80
2019-02-02T00:52:02.187Z,17.10
2019-02-02T00:57:03.642Z,16.70
2019-02-02T01:02:04.972Z,16.90
2019-02-02T01:07:06.517Z,17.00
2019-02-02T01:12:07.774Z,17.00
2019-02-02T01:17:09.133Z,16.70
2019-02-02T01:22:10.385Z,16.60
2019-02-02T01:27:11.772Z,16.70
2019-02-02T01:32:14.015Z,16.60
2019-02-02T01:37:15.587Z,16.90
2019-02-02T01:42:18.741Z,16.90
2019-02-02T01:47:21.891Z,17.00
2019-02-02T01:52:23.246Z,17.00
2019-02-02T01:57:24.507Z,16.80
2019-02-02T02:02:25.807Z,16.90
2019-02-02T02:07:27.053Z,16.80
2019-02-02T02:12:28.393Z,16.70
2019-02-02T02:17:31.542Z,16.30
2019-02-02T02:22:40.907Z,16.30
2019-02-02T02:27:36.125Z,16.30
2019-02-02T02:32:37.479Z,16.40
2019-02-02T02:37:38.841Z,16.20
2019-02-02T02:42:40.098Z,16.30
2019-02-02T02:47:41.573Z,16.30
2019-02-02T02:52:43.025Z,16.20
2019-02-02T02:57:45.683Z,16.20
2019-02-02T03:02:47.101Z,16.20
2019-02-02T03:07:50.968Z,16.10
2019-02-02T03:12:53.443Z,16.00
2019-02-02T03:17:54.734Z,15.80
2019-02-02T03:22:55.962Z,15.70
2019-02-02T03:27:57.213Z,15.50
2019-02-02T03:32:58.642Z,15.50
2019-02-02T03:37:59.907Z,15.20
2019-02-02T03:43:01.170Z,15.20
2019-02-02T03:48:02.819Z,15.10
2019-02-02T03:53:04.272Z,14.60
2019-02-02T03:58:05.635Z,14.40
2019-02-02T04:03:07.220Z,14.40
2019-02-02T04:08:08.675Z,14.60
2019-02-02T04:13:09.924Z,15.00
2019-02-02T04:18:11.271Z,15.00
2019-02-02T04:23:12.529Z,15.10
2019-02-02T04:28:13.876Z,14.90
2019-02-02T04:33:15.162Z,14.90
2019-02-02T04:38:16.394Z,15.00
2019-02-02T04:43:17.644Z,15.40
2019-02-02T04:48:18.912Z,15.50
2019-02-02T04:53:20.158Z,15.80
2019-02-02T04:58:21.406Z,15.90
2019-02-02T05:03:22.653Z,15.90
2019-02-02T05:08:23.909Z,14.90
2019-02-02T05:13:25.181Z,14.40
2019-02-02T05:18:26.421Z,13.90
2019-02-02T05:23:27.650Z,13.40
2019-02-02T05:28:28.883Z,13.30
2019-02-02T05:33:30.155Z,12.90
2019-02-02T05:38:31.564Z,12.40
2019-02-02T05:43:32.817Z,12.30
2019-02-02T05:48:34.071Z,11.90
2019-02-02T05:53:35.325Z,11.70
2019-02-02T05:58:36.562Z,11.20
2019-02-02T06:03:37.809Z,10.70
2019-02-02T06:08:39.056Z,10.50
2019-02-02T06:13:40.320Z,10.40
2019-02-02T06:18:41.561Z,10.30
2019-02-02T06:23:42.797Z,10.30
2019-02-02T06:28:44.065Z,10.40
2019-02-02T06:33:45.292Z,10.90
2019-02-02T06:38:46.560Z,11.60
2019-02-02T06:43:47.819Z,11.80
2019-02-02T06:48:49.164Z,11.70
2019-02-02T06:53:50.420Z,11.60
2019-02-02T06:58:51.672Z,11.30
2019-02-02T07:03:53.062Z,10.70
2019-02-02T07:08:54.516Z,11.70
2019-02-02T07:13:55.774Z,12.50
2019-02-02T07:18:57.040Z,12.30
2019-02-02T07:23:58.297Z,12.70
2019-02-02T07:28:59.541Z,12.30
2019-02-02T07:34:00.802Z,11.90
2019-02-02T07:39:04.958Z,11.40
2019-02-02T07:44:06.425Z,11.10
2019-02-02T07:49:07.695Z,11.10
2019-02-02T07:54:08.949Z,11.20
2019-02-02T07:59:10.337Z,11.30
2019-02-02T08:04:11.573Z,11.20
2019-02-02T08:09:12.910Z,11.50
2019-02-02T08:14:14.162Z,11.80
2019-02-02T08:19:15.421Z,11.80
2019-02-02T08:24:16.803Z,12.30
2019-02-02T08:29:18.227Z,12.60
2019-02-02T08:34:19.470Z,12.70
2019-02-02T08:39:28.966Z,12.60
2019-02-02T08:44:24.016Z,12.80
2019-02-02T08:49:25.413Z,13.60
2019-02-02T08:54:26.663Z,14.50
2019-02-02T08:59:27.939Z,15.60
2019-02-02T09:04:29.183Z,16.40
2019-02-02T09:09:30.474Z,16.60
2019-02-02T09:14:31.741Z,16.80
2019-02-02T09:19:33.014Z,16.90
2019-02-02T09:24:34.254Z,16.90
2019-02-02T09:29:35.623Z,16.90
2019-02-02T09:34:36.882Z,16.80
2019-02-02T09:39:38.156Z,16.40
2019-02-02T09:44:39.398Z,16.60
2019-02-02T09:49:40.686Z,16.80
2019-02-02T09:54:41.923Z,16.60
2019-02-02T09:59:43.205Z,16.10
2019-02-02T10:04:44.562Z,16.70
2019-02-02T10:09:45.826Z,16.70
2019-02-02T10:14:47.108Z,16.70
2019-02-02T10:19:48.375Z,17.20
2019-02-02T10:24:50.038Z,17.10
2019-02-02T10:29:51.369Z,17.10
2019-02-02T10:34:52.784Z,16.80
2019-02-02T10:39:54.124Z,16.50
2019-02-02T10:44:55.477Z,16.30
2019-02-02T10:49:56.803Z,15.80
2019-02-02T10:54:58.138Z,15.60
2019-02-02T10:59:59.487Z,16.00
2019-02-02T11:05:01.036Z,15.90
2019-02-02T11:10:10.787Z,14.80
2019-02-02T11:15:19.088Z,16.10
2019-02-02T11:20:31.687Z,14.50
2019-02-02T11:25:33.272Z,14.60
2019-02-02T11:30:35.457Z,15.00
2019-02-02T11:35:36.895Z,14.40
2019-02-02T11:40:38.366Z,14.10
2019-02-02T11:45:39.688Z,15.20
2019-02-02T11:50:41.108Z,15.70
2019-02-02T11:55:42.562Z,16.10
2019-02-02T12:00:44.077Z,16.40
2019-02-02T12:05:45.464Z,16.40
2019-02-02T12:10:46.886Z,17.50
2019-02-02T12:15:48.422Z,17.40
2019-02-02T12:20:50.031Z,17.30
2019-02-02T12:25:53.179Z,17.50
2019-02-02T12:30:54.755Z,17.10
2019-02-02T12:35:56.224Z,17.20
2019-02-02T12:40:59.679Z,17.10
2019-02-02T12:46:00.801Z,16.20
2019-02-02T12:51:02.658Z,15.60
2019-02-02T12:56:03.894Z,15.90
2019-02-02T13:01:05.157Z,15.00
2019-02-02T13:06:06.451Z,15.50
2019-02-02T13:11:07.816Z,14.80
2019-02-02T13:16:09.072Z,16.30
2019-02-02T13:21:10.322Z,16.20
2019-02-02T13:26:11.612Z,15.60
2019-02-02T13:31:12.824Z,14.70
2019-02-02T13:36:14.077Z,15.20
2019-02-02T13:41:15.485Z,15.60
2019-02-02T13:46:16.739Z,15.80
2019-02-02T13:51:18.023Z,15.20
2019-02-02T13:56:19.270Z,14.00
2019-02-02T14:01:20.553Z,14.20
2019-02-02T14:06:21.851Z,15.00
2019-02-02T14:11:23.217Z,15.60
2019-02-02T14:16:24.501Z,16.10
2019-02-02T14:21:25.773Z,15.80
2019-02-02T14:26:27.162Z,16.50
2019-02-02T14:31:28.542Z,16.60
2019-02-02T14:36:29.786Z,16.20
2019-02-02T14:41:31.102Z,14.90
2019-02-02T14:46:32.387Z,15.50
2019-02-02T14:51:33.776Z,15.40
2019-02-02T14:56:35.941Z,15.40
2019-02-02T15:01:37.197Z,15.30
2019-02-02T15:06:38.438Z,15.70
2019-02-02T15:11:39.800Z,16.00
2019-02-02T15:16:41.171Z,15.20
2019-02-02T15:21:42.390Z,16.10
2019-02-02T15:26:43.650Z,15.60
2019-02-02T15:31:44.990Z,16.30
2019-02-02T15:36:46.289Z,16.70
2019-02-02T15:41:52.911Z,16.30
2019-02-02T15:46:50.828Z,16.20
2019-02-02T15:51:52.147Z,16.80
2019-02-02T15:56:53.448Z,16.80
2019-02-02T16:01:54.829Z,16.30
2019-02-02T16:06:56.200Z,16.70
2019-02-02T16:11:57.484Z,17.00
2019-02-02T16:16:58.728Z,17.30
2019-02-02T16:21:59.997Z,17.10
2019-02-02T16:27:01.256Z,17.30
2019-02-02T16:32:03.543Z,16.40
2019-02-02T16:37:04.856Z,16.70
2019-02-02T16:42:06.099Z,17.40
2019-02-02T16:47:07.595Z,17.40
2019-02-02T16:52:08.869Z,17.70
2019-02-02T16:57:10.142Z,17.90
2019-02-02T17:02:11.416Z,17.20
2019-02-02T17:07:12.687Z,17.20
2019-02-02T17:12:13.989Z,16.00
2019-02-02T17:17:15.344Z,17.10
2019-02-02T17:22:16.714Z,17.30
2019-02-02T17:27:18.120Z,17.40
2019-02-02T17:32:19.387Z,17.50
2019-02-02T17:37:20.666Z,17.90
2019-02-02T17:42:21.965Z,17.70
2019-02-02T17:47:23.238Z,17.70
2019-02-02T17:52:24.523Z,17.60
2019-02-02T17:57:25.844Z,17.40
2019-02-02T18:02:27.197Z,17.30
2019-02-02T18:07:28.466Z,17.20
2019-02-02T18:12:29.733Z,17.30
2019-02-02T18:17:30.984Z,17.30
2019-02-02T18:22:32.338Z,17.50
2019-02-02T18:27:33.625Z,17.60
2019-02-02T18:32:35.042Z,17.60
2019-02-02T18:37:36.328Z,17.40
2019-02-02T18:42:37.646Z,17.30
2019-02-02T18:47:38.967Z,17.20
2019-02-02T18:52:40.740Z,16.90
2019-02-02T18:57:42.023Z,16.70
2019-02-02T19:02:43.540Z,16.70
2019-02-02T19:07:45.012Z,17.10
2019-02-02T19:12:46.345Z,17.00
2019-02-02T19:17:47.619Z,17.10
2019-02-02T19:22:49.195Z,17.00
2019-02-02T19:27:50.496Z,16.00
2019-02-02T19:32:51.963Z,15.70
2019-02-02T19:37:53.253Z,15.80
2019-02-02T19:42:54.510Z,16.00
2019-02-02T19:47:55.758Z,15.10
2019-02-02T19:52:57.040Z,15.20
2019-02-02T19:57:58.425Z,15.30
2019-02-02T20:03:01.070Z,15.40
2019-02-02T20:08:02.932Z,15.60
2019-02-02T20:13:04.494Z,15.40
2019-02-02T20:18:09.764Z,15.10
2019-02-02T20:23:09.152Z,15.00
2019-02-02T20:28:10.438Z,14.20
2019-02-02T20:33:11.716Z,13.60
2019-02-02T20:38:13.201Z,14.40
2019-02-02T20:43:14.487Z,14.40
2019-02-02T20:48:15.765Z,14.40
2019-02-02T20:53:17.035Z,14.20
2019-02-02T20:58:18.291Z,14.10
2019-02-02T21:03:19.581Z,14.40
2019-02-02T21:08:21.588Z,14.60
2019-02-02T21:13:23.066Z,15.20
2019-02-02T21:18:24.330Z,15.10
2019-02-02T21:23:25.609Z,14.50
2019-02-02T21:28:26.863Z,14.90
2019-02-02T21:33:28.249Z,15.10
2019-02-02T21:38:29.496Z,15.00
2019-02-02T21:43:34.106Z,14.90
2019-02-02T21:48:36.339Z,13.80
2019-02-02T21:53:37.838Z,14.50
2019-02-02T21:58:39.119Z,14.30
2019-02-02T22:03:40.474Z,14.00
2019-02-02T22:08:41.932Z,14.10
2019-02-02T22:13:45.129Z,14.20
2019-02-02T22:18:46.408Z,14.10
2019-02-02T22:23:47.669Z,14.20
2019-02-02T22:28:48.952Z,14.20
2019-02-02T22:33:50.188Z,14.40
2019-02-02T22:38:51.475Z,14.30
2019-02-02T22:43:53.037Z,14.50
2019-02-02T22:48:54.268Z,14.50
2019-02-02T22:53:55.547Z,14.30
2019-02-02T22:58:56.808Z,14.70
2019-02-02T23:04:03.794Z,14.40
2019-02-02T23:09:47.411Z,14.30
2019-02-02T23:15:18.274Z,14.50
2019-02-02T23:20:19.574Z,14.60
2019-02-02T23:25:20.825Z,14.60
2019-02-02T23:30:22.090Z,14.40
2019-02-02T23:35:23.341Z,14.20
2019-02-02T23:40:24.598Z,13.90
2019-02-02T23:45:25.851Z,13.70
2019-02-02T23:50:27.119Z,13.60
2019-02-02T23:55:28.379Z,13.40
